Time;durP1;ratioP1;P1;durP2;ratioP2;P2;SDS_P1;SDS_P2;PMS_P1;PMS_P2;Temp;Humidity;BMP_temperature;BMP_pressure;BME280_temperature;BME280_humidity;BME280_pressure;Samples;Min_cycle;Max_cycle;Signal;HPM_P1;HPM_P2
2021/11/13 00:00:26;;;;;;;58.93;18.93;;;2.60;99.90;;;3.00;73.28;97564.44;4980995;28;20046;-39
2021/11/13 00:02:54;;;;;;;80.63;20.83;;;2.70;99.90;;;3.02;73.47;97561.69;4980774;28;20331;-39
2021/11/13 00:05:24;;;;;;;86.03;19.83;;;2.70;99.90;;;3.03;73.38;97568.63;4981345;28;20051;-39
2021/11/13 00:07:53;;;;;;;64.17;18.47;;;2.80;99.90;;;3.02;73.50;97569.56;4980896;28;20046;-39
2021/11/13 00:10:26;;;;;;;95.37;18.80;;;2.70;99.90;;;3.00;73.60;97574.94;4980193;28;20411;-43
2021/11/13 00:12:58;;;;;;;34.43;16.77;;;2.70;99.90;;;2.99;73.64;97575.09;4980675;28;20062;-39
2021/11/13 00:15:27;;;;;;;72.60;17.23;;;2.70;99.90;;;2.90;73.44;97571.34;4980781;28;20228;-39
2021/11/13 00:17:57;;;;;;;54.07;15.67;;;2.60;99.90;;;2.87;73.72;97567.16;4980814;28;20085;-40
2021/11/13 00:20:27;;;;;;;59.17;16.03;;;2.50;99.90;;;2.80;73.39;97573.81;4980637;28;20984;-40
2021/11/13 00:22:59;;;;;;;36.90;15.20;;;2.50;99.90;;;2.70;73.62;97573.66;4980101;28;20379;-39
2021/11/13 00:25:28;;;;;;;31.17;14.43;;;2.40;99.90;;;2.71;73.57;97577.13;4980622;28;20039;-38
2021/11/13 00:27:56;;;;;;;31.87;14.23;;;2.40;99.90;;;2.69;73.77;97571.16;4980497;28;20054;-38
2021/11/13 00:30:26;;;;;;;65.13;16.93;;;2.40;99.90;;;2.71;73.72;97577.97;4980278;28;20057;-39
2021/11/13 00:32:54;;;;;;;38.23;15.97;;;2.40;99.90;;;2.73;74.08;97573.44;4980025;28;20266;-39
2021/11/13 00:35:23;;;;;;;45.20;17.70;;;2.40;99.90;;;2.74;73.92;97583.00;4980355;28;20060;-38
2021/11/13 00:37:52;;;;;;;58.93;16.80;;;2.50;99.90;;;2.75;73.71;97565.44;4980300;28;20057;-39
2021/11/13 00:40:20;;;;;;;63.07;17.57;;;2.40;99.90;;;2.76;73.75;97567.94;4980187;28;20050;-38
2021/11/13 00:42:49;;;;;;;37.30;15.97;;;2.40;99.90;;;2.78;73.62;97561.75;4979649;28;20061;-39
2021/11/13 00:45:17;;;;;;;40.97;15.70;;;2.40;99.90;;;2.75;73.94;97558.41;4980196;28;20257;-39
2021/11/13 00:47:46;;;;;;;78.07;17.87;;;2.40;99.90;;;2.79;73.86;97553.72;4978647;28;20061;-39
2021/11/13 00:50:15;;;;;;;49.50;17.07;;;2.50;99.90;;;2.79;74.08;97543.22;4980320;28;20053;-39
2021/11/13 00:52:43;;;;;;;32.10;15.60;;;2.50;99.90;;;2.79;73.88;97551.09;4979712;28;20051;-39
2021/11/13 00:55:15;;;;;;;73.20;20.00;;;2.50;99.90;;;2.80;73.88;97557.22;4980010;28;20064;-39
2021/11/13 00:57:45;;;;;;;60.77;17.03;;;2.50;99.90;;;2.66;73.70;97566.13;4980128;28;20276;-38
2021/11/13 01:00:18;;;;;;;85.00;21.27;;;2.40;99.90;;;2.68;74.17;97574.75;4980157;28;20049;-38
2021/11/13 01:02:47;;;;;;;54.20;16.60;;;2.40;99.90;;;2.68;74.04;97591.34;4979800;28;20042;-38
2021/11/13 01:05:16;;;;;;;54.00;16.67;;;2.40;99.90;;;2.66;74.09;97595.03;4980057;28;20050;-39
2021/11/13 01:07:46;;;;;;;51.07;16.30;;;2.40;99.90;;;2.61;73.96;97597.16;4979862;28;20050;-38
2021/11/13 01:10:18;;;;;;;61.33;17.20;;;2.40;99.90;;;2.55;73.88;97591.41;4978740;28;20050;-39
2021/11/13 01:12:49;;;;;;;156.50;27.00;;;2.30;99.90;;;2.49;74.25;97601.53;4979620;28;20253;-38
2021/11/13 01:15:21;;;;;;;70.77;16.03;;;2.20;99.90;;;2.42;74.25;97609.00;4979493;28;20061;-39
2021/11/13 01:17:50;;;;;;;65.23;15.90;;;2.10;99.90;;;2.34;74.54;97613.97;4980137;28;20118;-38
2021/11/13 01:20:20;;;;;;;92.30;18.17;;;2.10;99.90;;;2.24;74.70;97608.53;4978753;28;20122;-38
2021/11/13 01:22:50;;;;;;;87.13;19.07;;;2.00;99.90;;;2.16;74.45;97616.97;4979320;28;20050;-38
2021/11/13 01:25:19;;;;;;;55.23;14.67;;;1.90;99.90;;;2.16;74.88;97618.78;4979331;28;20061;-39
2021/11/13 01:27:48;;;;;;;76.90;15.57;;;1.90;99.90;;;2.13;74.90;97617.22;4980187;28;20068;-38
2021/11/13 01:30:17;;;;;;;70.70;16.77;;;1.90;99.90;;;2.08;75.08;97615.84;4979624;28;20389;-38
2021/11/13 01:32:46;;;;;;;58.47;14.33;;;1.90;99.90;;;2.04;74.61;97612.59;4977051;28;20043;-38
2021/11/13 01:35:16;;;;;;;44.10;14.07;;;1.80;99.90;;;2.06;74.99;97604.63;4979547;28;20047;-39
2021/11/13 01:37:45;;;;;;;68.57;14.63;;;1.80;99.90;;;1.97;74.87;97612.19;4962624;28;20264;-38
2021/11/13 01:40:19;;;;;;;98.10;20.13;;;1.80;99.90;;;1.99;74.99;97606.84;4979500;28;20039;-38
2021/11/13 01:42:48;;;;;;;35.72;11.88;;;1.80;99.90;;;2.02;74.78;97601.38;4979582;28;20051;-38
2021/11/13 01:45:18;;;;;;;61.97;15.60;;;1.80;99.90;;;2.10;75.22;97598.19;4979304;28;20059;-38
2021/11/13 01:47:48;;;;;;;89.93;17.13;;;1.90;99.90;;;2.09;74.86;97586.00;4978529;28;20043;-38
2021/11/13 01:50:25;;;;;;;41.67;13.70;;;1.90;99.90;;;2.12;74.74;97584.00;4979089;28;20046;-38
2021/11/13 01:52:54;;;;;;;122.30;20.50;;;1.90;99.90;;;2.05;74.59;97574.03;4979017;28;20050;-39
2021/11/13 01:55:23;;;;;;;34.37;13.47;;;1.80;99.90;;;2.07;74.71;97577.41;4962570;28;20065;-39
2021/11/13 01:57:51;;;;;;;88.77;15.73;;;1.80;99.90;;;2.14;74.57;97581.28;4979511;28;20065;-39
2021/11/13 02:00:28;;;;;;;39.20;14.07;;;1.90;99.90;;;2.05;74.97;97574.03;4980028;28;20055;-38
2021/11/13 02:02:57;;;;;;;89.33;14.70;;;1.80;99.90;;;2.05;74.38;97568.78;4982451;28;20081;-38
2021/11/13 02:05:26;;;;;;;49.37;16.57;;;1.80;99.90;;;2.12;75.09;97572.66;4982988;28;20050;-38
2021/11/13 02:07:55;;;;;;;34.70;12.73;;;1.90;99.90;;;2.14;74.80;97568.13;4982122;28;20233;-38
2021/11/13 02:10:26;;;;;;;43.37;12.43;;;1.90;99.90;;;2.21;74.96;97579.88;4981914;28;20179;-38
2021/11/13 02:12:56;;;;;;;43.83;13.23;;;2.00;99.90;;;2.18;74.91;97574.84;4981486;28;20054;-38
2021/11/13 02:15:28;;;;;;;95.20;19.77;;;2.00;99.90;;;2.10;74.76;97582.44;4981787;28;20046;-39
2021/11/13 02:18:00;;;;;;;71.73;15.90;;;1.90;99.90;;;2.10;74.45;97572.78;4982843;28;20069;-38
2021/11/13 02:20:33;;;;;;;101.83;18.10;;;1.80;99.90;;;2.16;74.78;97589.88;4982807;28;20056;-39
2021/11/13 02:23:18;;;;;;;99.47;17.45;;;1.90;99.90;;;2.12;74.44;97586.63;4982308;28;20047;-38
2021/11/13 02:25:50;;;;;;;65.57;13.43;;;1.90;99.90;;;2.10;74.53;97598.19;4982699;28;20258;-39
2021/11/13 02:28:25;;;;;;;46.30;12.77;;;1.80;99.90;;;2.05;74.45;97572.25;4982609;28;20349;-38
2021/11/13 02:30:58;;;;;;;30.83;11.63;;;1.80;99.90;;;2.09;74.46;97578.97;4982265;28;20047;-39
2021/11/13 02:33:26;;;;;;;25.87;12.10;;;1.80;99.90;;;2.12;74.61;97577.91;4981331;28;20055;-38
2021/11/13 02:35:58;;;;;;;41.07;10.93;;;1.80;99.90;;;2.15;74.42;97591.69;4982652;28;20047;-38
2021/11/13 02:38:36;;;;;;;36.30;11.50;;;1.90;99.90;;;2.14;74.10;97581.28;4981455;28;20056;-38
2021/11/13 02:41:11;;;;;;;29.03;10.30;;;1.80;99.90;;;2.17;74.43;97586.28;4980679;28;20073;-38
2021/11/13 02:43:40;;;;;;;19.40;9.87;;;1.90;99.90;;;2.22;74.64;97578.94;4982285;28;20061;-39
2021/11/13 02:46:10;;;;;;;32.10;10.70;;;1.90;99.90;;;2.22;74.08;97573.69;4982409;28;20049;-39
2021/11/13 02:48:41;;;;;;;21.70;9.60;;;1.90;99.90;;;2.24;74.42;97574.41;4981685;28;20042;-39
2021/11/13 02:51:11;;;;;;;20.40;10.20;;;1.90;99.90;;;2.24;74.14;97560.44;4981059;28;20055;-39
2021/11/13 02:53:44;;;;;;;17.40;10.27;;;1.90;99.90;;;2.26;74.57;97567.25;4965220;28;20373;-38
2021/11/13 02:56:13;;;;;;;22.30;10.30;;;2.00;99.90;;;2.31;74.58;97573.00;4982141;28;20057;-38
2021/11/13 02:58:42;;;;;;;17.13;9.07;;;2.00;99.90;;;2.34;74.19;97577.19;4982208;28;20038;-39
2021/11/13 03:01:16;;;;;;;18.73;9.40;;;2.10;99.90;;;2.35;74.18;97574.47;4981813;28;20042;-38
2021/11/13 03:03:49;;;;;;;20.77;9.20;;;2.10;99.90;;;2.32;74.18;97566.78;4980977;28;20245;-38
2021/11/13 03:06:23;;;;;;;60.90;12.00;;;2.00;99.90;;;2.30;74.14;97562.63;4982035;28;20047;-39
2021/11/13 03:08:54;;;;;;;17.70;8.87;;;1.90;99.90;;;2.26;73.88;97569.03;4982088;28;20053;-39
2021/11/13 03:11:23;;;;;;;12.40;7.53;;;1.90;99.90;;;2.28;73.96;97565.34;4981775;28;20248;-38
2021/11/13 03:13:53;;;;;;;10.33;7.77;;;1.90;99.90;;;2.32;74.18;97566.78;4981659;28;20049;-38
2021/11/13 03:16:22;;;;;;;11.50;8.00;;;2.00;99.90;;;2.33;73.80;97565.84;4982133;28;20058;-38
2021/11/13 03:18:50;;;;;;;11.83;8.30;;;2.00;99.90;;;2.35;74.03;97571.00;4981725;28;20057;-38
2021/11/13 03:21:19;;;;;;;9.47;7.40;;;2.00;99.90;;;2.39;73.87;97563.75;4981664;28;20047;-38
2021/11/13 03:23:48;;;;;;;14.53;8.20;;;2.10;99.90;;;2.40;73.98;97557.53;4981320;28;20047;-38
2021/11/13 03:26:24;;;;;;;14.80;8.47;;;2.10;99.90;;;2.41;74.00;97569.72;4981903;28;20346;-38
2021/11/13 03:29:08;;;;;;;13.17;8.23;;;2.10;99.90;;;2.40;73.93;97565.41;4981574;28;20039;-39
2021/11/13 03:31:36;;;;;;;15.73;8.10;;;2.10;99.90;;;2.39;73.61;97561.94;4980257;28;20051;-38
2021/11/13 03:34:06;;;;;;;37.50;9.77;;;2.10;99.90;;;2.38;73.58;97570.75;4981697;28;20054;-39
2021/11/13 03:36:35;;;;;;;14.57;8.73;;;2.00;99.90;;;2.34;73.97;97570.16;4981517;28;20045;-38
2021/11/13 03:39:06;;;;;;;13.20;9.13;;;2.00;99.90;;;2.29;73.79;97555.69;4981271;28;20061;-39
2021/11/13 03:41:37;;;;;;;14.03;10.00;;;2.00;99.90;;;2.29;73.97;97556.53;4979062;28;20063;-39
2021/11/13 03:44:05;;;;;;;20.97;9.50;;;2.00;99.90;;;2.30;73.62;97549.47;4978773;28;20368;-39
2021/11/13 03:46:34;;;;;;;15.27;9.10;;;2.00;99.90;;;2.30;73.58;97546.84;4981322;28;20194;-39
2021/11/13 03:49:03;;;;;;;15.20;9.00;;;2.00;99.90;;;2.34;73.87;97556.19;4980926;28;20046;-39
2021/11/13 03:51:32;;;;;;;12.93;8.90;;;2.00;99.90;;;2.36;73.72;97541.13;4979636;28;20253;-39
2021/11/13 03:54:02;;;;;;;12.77;9.60;;;2.10;99.90;;;2.41;73.95;97552.16;4981257;28;20060;-39
2021/11/13 03:56:30;;;;;;;13.60;9.33;;;2.20;99.90;;;2.45;73.84;97555.41;4980617;28;20252;-39
2021/11/13 03:58:58;;;;;;;13.90;8.93;;;2.20;99.90;;;2.44;73.38;97554.53;4980895;28;20051;-39
2021/11/13 04:01:27;;;;;;;12.47;8.73;;;2.20;99.90;;;2.43;73.66;97555.50;4980674;28;20355;-38
2021/11/13 04:03:57;;;;;;;13.47;9.77;;;2.30;99.90;;;2.50;74.02;97555.88;4981005;28;20063;-38
2021/11/13 04:06:26;;;;;;;14.00;10.17;;;2.30;99.90;;;2.54;73.66;97550.31;4980829;28;20226;-39
2021/11/13 04:08:55;;;;;;;14.13;9.47;;;2.30;99.90;;;2.58;73.41;97545.66;4980719;28;20051;-39
2021/11/13 04:11:23;;;;;;;12.37;9.13;;;2.30;99.90;;;2.56;73.59;97537.91;4979976;28;20046;-38
2021/11/13 04:13:53;;;;;;;14.70;10.07;;;2.30;99.90;;;2.54;73.65;97538.97;4980781;28;20059;-38
2021/11/13 04:16:21;;;;;;;14.90;10.33;;;2.30;99.90;;;2.55;73.65;97530.94;4980855;28;20248;-38
2021/11/13 04:18:51;;;;;;;16.63;10.20;;;2.30;99.90;;;2.60;73.53;97529.75;4980550;28;20039;-39
2021/11/13 04:21:20;;;;;;;14.50;11.60;;;2.40;99.90;;;2.61;73.94;97532.28;4979987;28;20346;-38
2021/11/13 04:23:48;;;;;;;14.83;10.30;;;2.40;99.90;;;2.61;73.75;97526.19;4979624;28;20252;-39
2021/11/13 04:26:17;;;;;;;15.57;9.83;;;2.50;99.90;;;2.62;73.34;97520.84;4980772;28;20329;-38
2021/11/13 04:28:48;;;;;;;14.80;9.77;;;2.50;99.90;;;2.66;73.51;97524.06;4980528;28;20043;-38
2021/11/13 04:31:17;;;;;;;14.40;10.27;;;2.50;99.90;;;2.68;73.53;97522.16;4980103;28;20065;-38
2021/11/13 04:33:46;;;;;;;14.37;9.50;;;2.50;99.90;;;2.69;72.96;97510.69;4978396;28;20053;-39
2021/11/13 04:38:43;;;;;;;14.47;10.43;;;2.60;99.90;;;2.72;73.47;97518.34;4980449;28;20054;-39
2021/11/13 04:41:11;;;;;;;14.73;10.93;;;2.60;99.90;;;2.74;73.52;97522.53;4980162;28;20051;-38
2021/11/13 04:43:41;;;;;;;14.83;10.20;;;2.60;99.90;;;2.78;73.73;97524.94;4978753;28;20364;-39
2021/11/13 04:46:09;;;;;;;15.37;10.60;;;2.60;99.90;;;2.81;73.64;97528.19;4980064;28;20055;-38
2021/11/13 04:48:37;;;;;;;15.30;11.17;;;2.60;99.90;;;2.82;73.58;97521.94;4979225;28;20066;-39
2021/11/13 04:51:06;;;;;;;16.67;11.20;;;2.60;99.90;;;2.85;73.29;97528.75;4978621;28;20245;-39
2021/11/13 04:53:35;;;;;;;13.97;10.80;;;2.60;99.90;;;2.89;73.60;97514.44;4979479;28;20073;-39
2021/11/13 04:56:04;;;;;;;15.03;10.37;;;2.70;99.90;;;2.92;73.11;97506.31;4979921;28;20272;-39
2021/11/13 04:58:33;;;;;;;14.37;10.37;;;2.70;99.90;;;2.92;73.32;97512.41;4980072;28;20054;-39
2021/11/13 05:01:02;;;;;;;15.10;10.57;;;2.70;99.90;;;2.92;73.18;97517.66;4979753;28;20050;-39
2021/11/13 05:03:31;;;;;;;15.73;11.03;;;2.70;99.90;;;2.92;73.31;97519.47;4979239;28;20046;-39
2021/11/13 05:05:59;;;;;;;14.70;10.40;;;2.70;99.90;;;2.93;73.04;97526.41;4978480;28;20341;-38
2021/11/13 05:08:28;;;;;;;14.70;10.70;;;2.70;99.90;;;2.90;73.27;97516.94;4979967;28;20046;-39
2021/11/13 05:10:57;;;;;;;16.10;11.33;;;2.60;99.90;;;2.89;73.14;97523.19;4979835;28;20055;-39
2021/11/13 05:13:25;;;;;;;16.00;10.53;;;2.60;99.90;;;2.90;73.37;97524.00;4979879;28;20046;-39
2021/11/13 05:15:55;;;;;;;15.03;10.70;;;2.60;99.90;;;2.93;73.08;97523.78;4980535;28;20064;-38
2021/11/13 05:18:23;;;;;;;16.43;10.83;;;2.70;99.90;;;2.95;73.23;97521.88;4979596;28;20047;-39
2021/11/13 05:20:52;;;;;;;17.03;11.93;;;2.80;99.90;;;2.93;73.21;97519.34;4979558;28;20047;-39
2021/11/13 05:23:20;;;;;;;18.43;11.17;;;2.70;99.90;;;2.92;73.06;97515.03;4979772;28;20055;-39
2021/11/13 05:25:49;;;;;;;15.37;10.67;;;2.60;99.90;;;2.95;73.15;97521.88;4979929;28;20057;-39
2021/11/13 05:28:18;;;;;;;15.40;11.27;;;2.70;99.90;;;3.00;72.92;97513.63;4979806;28;20064;-38
2021/11/13 05:30:47;;;;;;;16.53;11.17;;;2.70;99.90;;;2.99;73.43;97510.16;4979621;28;20054;-38
2021/11/13 05:33:16;;;;;;;17.07;12.00;;;2.80;99.90;;;3.03;73.12;97514.22;4978318;28;20337;-39
2021/11/13 05:35:45;;;;;;;14.97;11.30;;;2.80;99.90;;;3.05;72.80;97498.34;4981458;28;20046;-39
2021/11/13 05:38:13;;;;;;;14.67;10.53;;;2.80;99.90;;;3.10;73.56;97496.19;4983910;28;20236;-38
2021/11/13 05:40:42;;;;;;;17.07;11.43;;;2.90;99.90;;;3.13;73.28;97493.31;4983918;28;20065;-39
2021/11/13 05:43:12;;;;;;;15.23;9.90;;;2.90;99.90;;;3.15;73.24;97484.34;4982862;28;20272;-39
2021/11/13 05:45:41;;;;;;;20.53;10.93;;;3.00;99.90;;;3.14;72.91;97484.44;4983002;28;20054;-38
2021/11/13 05:48:10;;;;;;;15.87;10.77;;;3.00;99.90;;;3.12;73.04;97483.75;4983655;28;20051;-38
2021/11/13 05:50:39;;;;;;;14.37;10.87;;;2.90;99.90;;;3.16;73.03;97479.94;4983503;28;20043;-38
2021/11/13 05:53:08;;;;;;;17.57;11.67;;;3.00;99.90;;;3.19;72.97;97484.94;4980302;28;20043;-38
2021/11/13 05:55:37;;;;;;;12.40;10.70;;;3.00;99.90;;;3.18;72.92;97482.44;4965935;28;20088;-38
2021/11/13 05:58:07;;;;;;;16.40;11.13;;;2.90;99.90;;;3.19;73.68;97479.69;4983421;28;20069;-38
2021/11/13 06:00:36;;;;;;;14.47;10.07;;;3.00;99.90;;;3.23;73.26;97475.84;4982157;28;20053;-38
2021/11/13 06:03:04;;;;;;;16.27;10.67;;;3.00;99.90;;;3.28;73.73;97480.78;4982734;28;20379;-39
2021/11/13 06:05:33;;;;;;;15.07;10.20;;;3.10;99.90;;;3.32;73.65;97472.50;4983472;28;20046;-39
2021/11/13 06:08:02;;;;;;;14.67;10.00;;;3.20;99.90;;;3.38;73.60;97476.47;4983000;28;20047;-39
2021/11/13 06:10:31;;;;;;;13.10;9.47;;;3.20;99.90;;;3.39;73.63;97462.31;4983255;28;20047;-39
2021/11/13 06:12:59;;;;;;;13.40;10.40;;;3.30;99.90;;;3.45;73.74;97468.91;4982471;28;20043;-38
2021/11/13 06:15:28;;;;;;;16.10;10.30;;;3.30;99.90;;;3.48;73.22;97469.50;4983194;28;20047;-39
2021/11/13 06:17:59;;;;;;;17.10;11.20;;;3.30;99.90;;;3.50;73.56;97464.97;4980255;28;20049;-39
2021/11/13 06:20:27;;;;;;;15.63;9.57;;;3.40;99.90;;;3.54;72.97;97470.81;4983215;28;20138;-39
2021/11/13 06:23:00;;;;;;;11.90;9.90;;;3.40;99.90;;;3.57;73.36;97462.69;4980114;28;20054;-39
2021/11/13 06:25:29;;;;;;;14.83;10.10;;;3.40;99.90;;;3.61;73.45;97464.13;4981807;28;20059;-39
2021/11/13 06:27:57;;;;;;;13.40;10.03;;;3.50;99.90;;;3.65;73.73;97467.34;4981699;28;20055;-39
2021/11/13 06:30:28;;;;;;;15.27;10.37;;;3.50;99.90;;;3.68;73.30;97473.22;4982847;28;20050;-39
2021/11/13 06:32:57;;;;;;;15.70;9.33;;;3.50;99.90;;;3.69;73.46;97477.50;4981843;28;20065;-39
2021/11/13 06:35:25;;;;;;;16.87;9.97;;;3.50;99.90;;;3.70;73.10;97475.69;4982591;28;20031;-39
2021/11/13 06:37:56;;;;;;;14.77;10.13;;;3.50;99.90;;;3.71;73.34;97464.22;4981469;28;20049;-39
2021/11/13 06:40:26;;;;;;;16.07;10.70;;;3.50;99.90;;;3.73;73.64;97465.75;4981476;28;20058;-39
2021/11/13 06:43:00;;;;;;;15.90;9.77;;;3.50;99.90;;;3.76;73.17;97464.66;4981466;28;20045;-39
2021/11/13 06:45:34;;;;;;;12.57;9.40;;;3.50;99.90;;;3.79;73.67;97448.63;4980844;28;20055;-38
2021/11/13 06:48:03;;;;;;;15.50;8.83;;;3.60;99.90;;;3.83;73.31;97447.44;4981995;28;20060;-39
2021/11/13 06:50:32;;;;;;;13.20;9.23;;;3.70;99.90;;;3.89;73.77;97451.38;4982369;28;20057;-39
2021/11/13 06:53:02;;;;;;;16.43;8.50;;;3.70;99.90;;;3.93;73.14;97450.97;4980900;28;20451;-39
2021/11/13 06:55:31;;;;;;;13.70;9.40;;;3.80;99.90;;;3.98;73.17;97458.53;4981415;28;20322;-39
2021/11/13 06:58:00;;;;;;;45.87;29.00;;;3.90;99.90;;;4.02;73.70;97459.94;4982305;28;20034;-39
2021/11/13 07:00:29;;;;;;;16.80;11.83;;;3.90;99.90;;;4.05;73.73;97464.97;4981305;28;20050;-39
2021/11/13 07:03:00;;;;;;;11.90;8.97;;;3.90;99.90;;;4.09;73.33;97473.44;4981694;28;20046;-39
2021/11/13 07:05:29;;;;;;;23.50;15.93;;;4.00;99.90;;;4.12;73.70;97468.78;4981736;28;20052;-39
2021/11/13 07:07:57;;;;;;;17.17;11.40;;;4.00;99.90;;;4.18;73.36;97475.34;4981771;28;20054;-39
2021/11/13 07:10:28;;;;;;;18.93;14.23;;;4.10;99.90;;;4.24;73.29;97482.75;4982001;28;20050;-39
2021/11/13 07:12:57;;;;;;;16.50;10.23;;;4.10;99.90;;;4.33;73.48;97489.06;4981606;28;20042;-39
2021/11/13 07:15:31;;;;;;;12.30;8.13;;;4.20;99.90;;;4.32;73.34;97496.16;4982084;28;20059;-39
2021/11/13 07:18:01;;;;;;;;;;;4.20;99.90;;;4.25;73.40;97502.88;4981327;28;20042;-39
2021/11/13 07:20:31;;;;;;;18.70;12.77;;;4.10;99.90;;;4.24;73.18;97510.91;4982004;28;19926;-39
2021/11/13 07:23:00;;;;;;;13.40;9.43;;;4.10;99.90;;;4.29;73.87;97508.75;4981345;28;20357;-39
2021/11/13 07:25:33;;;;;;;14.60;9.70;;;4.10;99.90;;;4.36;73.19;97503.78;4980946;28;20225;-39
2021/11/13 07:28:12;;;;;;;48.50;30.77;;;4.20;99.90;;;4.40;73.18;97513.13;4982018;28;20047;-39
2021/11/13 07:30:45;;;;;;;18.17;12.40;;;4.30;99.90;;;4.42;73.14;97524.38;4981992;28;20043;-39
2021/11/13 07:33:13;;;;;;;15.13;9.57;;;4.30;99.90;;;4.43;73.26;97526.06;4979667;28;20050;-39
2021/11/13 07:35:43;;;;;;;15.43;9.60;;;4.30;99.90;;;4.41;73.62;97518.25;4980923;28;20054;-39
2021/11/13 07:38:12;;;;;;;12.43;8.40;;;4.30;99.90;;;4.43;73.00;97518.16;4980410;28;20237;-39
2021/11/13 07:40:41;;;;;;;15.73;10.67;;;4.30;99.90;;;4.41;73.72;97518.25;4981453;28;20058;-39
2021/11/13 07:43:10;;;;;;;14.27;10.30;;;4.30;99.90;;;4.41;73.87;97496.34;4977824;28;20321;-40
2021/11/13 07:45:39;;;;;;;14.83;10.23;;;4.30;99.90;;;4.43;73.85;97504.97;4979212;28;20054;-39
2021/11/13 07:48:07;;;;;;;16.77;10.27;;;4.20;99.90;;;4.44;72.75;97504.00;4980456;28;20359;-39
2021/11/13 07:50:37;;;;;;;16.33;11.43;;;4.30;99.90;;;4.44;73.29;97506.63;4980271;28;20057;-39
2021/11/13 07:53:07;;;;;;;20.83;12.77;;;4.30;99.90;;;4.36;73.36;97512.53;4979644;28;20081;-39
2021/11/13 07:55:37;;;;;;;17.47;12.80;;;4.20;99.90;;;4.33;72.73;97505.72;4978656;28;20349;-39
2021/11/13 07:58:09;;;;;;;26.13;15.60;;;4.10;99.90;;;4.37;73.02;97508.09;4979386;28;20363;-39
2021/11/13 08:00:38;;;;;;;21.63;15.40;;;4.10;99.90;;;4.41;73.43;97506.91;4979376;28;20375;-39
2021/11/13 08:03:06;;;;;;;20.83;13.97;;;4.20;99.90;;;4.39;73.19;97512.28;4979738;28;20047;-39
2021/11/13 08:05:35;;;;;;;18.40;14.63;;;4.10;99.90;;;4.41;73.33;97520.06;4978692;28;20371;-39
2021/11/13 08:08:04;;;;;;;22.87;17.47;;;4.20;99.90;;;4.42;73.73;97522.59;4980057;28;20045;-39
2021/11/13 08:10:40;;;;;;;32.30;18.67;;;4.20;99.90;;;4.46;73.21;97523.16;4980535;28;20118;-39
2021/11/13 08:13:16;;;;;;;30.43;16.83;;;4.20;99.90;;;4.50;73.42;97525.44;4980503;28;20054;-39
2021/11/13 08:15:48;;;;;;;50.27;26.90;;;4.30;99.90;;;4.53;73.04;97521.69;4979681;28;20053;-39
2021/11/13 08:18:19;;;;;;;39.30;23.93;;;4.30;99.90;;;4.57;73.42;97517.00;4981018;28;20050;-39
2021/11/13 08:20:56;;;;;;;34.03;21.17;;;4.40;99.90;;;4.63;73.15;97521.75;5094750;28;20320;-39
2021/11/13 08:23:25;;;;;;;37.47;20.80;;;4.50;99.90;;;4.69;73.07;97513.34;5075221;28;20071;-39
2021/11/13 08:25:55;;;;;;;31.60;19.57;;;4.60;99.90;;;4.79;73.52;97521.31;5074747;28;20056;-39
2021/11/13 08:28:24;;;;;;;22.43;14.50;;;4.70;99.90;;;4.85;73.73;97524.31;5076122;28;20045;-40
2021/11/13 08:30:54;;;;;;;14.33;9.80;;;4.80;99.90;;;4.96;73.25;97526.03;5075693;28;20051;-39
2021/11/13 08:33:25;;;;;;;10.60;8.00;;;4.90;99.90;;;5.06;73.72;97529.59;5075326;28;20071;-39
2021/11/13 08:35:56;;;;;;;14.00;8.63;;;5.10;99.90;;;5.19;73.53;97532.00;5075875;28;20041;-39
2021/11/13 08:38:25;;;;;;;14.03;10.87;;;5.30;99.90;;;5.21;73.28;97555.63;5075662;28;20056;-39
2021/11/13 08:40:57;;;;;;;14.20;11.03;;;5.30;99.90;;;5.16;72.82;97573.66;5075488;28;20047;-39
2021/11/13 08:43:25;;;;;;;15.20;11.30;;;5.20;99.90;;;5.07;73.20;97570.00;5075279;28;20048;-39
2021/11/13 08:45:54;;;;;;;18.73;12.73;;;5.00;99.90;;;4.96;73.09;97562.13;5075417;28;20040;-39
2021/11/13 08:48:23;;;;;;;20.67;15.03;;;4.80;99.90;;;4.88;73.66;97553.03;5075456;28;20040;-40
2021/11/13 08:50:52;;;;;;;19.87;14.07;;;4.70;99.90;;;4.92;73.15;97554.50;5075549;28;20070;-41
2021/11/13 08:53:20;;;;;;;16.90;12.47;;;4.70;99.90;;;4.92;73.28;97549.22;5075190;28;20041;-40
2021/11/13 08:55:49;;;;;;;19.00;12.37;;;4.70;99.90;;;4.96;73.76;97533.13;5070742;28;20056;-40
2021/11/13 08:58:18;;;;;;;17.87;13.00;;;4.80;99.90;;;5.01;73.50;97528.28;5073579;28;20054;-40
2021/11/13 09:00:57;;;;;;;15.83;12.90;;;4.80;99.90;;;5.07;73.78;97533.88;5070379;28;20056;-40
2021/11/13 09:03:33;;;;;;;18.07;13.20;;;5.00;99.90;;;5.15;72.92;97527.13;5072854;28;20049;-39
2021/11/13 09:06:08;;;;;;;16.50;12.30;;;4.90;99.90;;;5.21;72.85;97524.78;5074622;28;20051;-40
2021/11/13 09:08:39;;;;;;;18.07;12.47;;;5.10;99.90;;;5.30;74.03;97526.66;5073975;28;20044;-39
2021/11/13 09:11:15;;;;;;;15.00;12.30;;;5.20;99.90;;;5.38;73.69;97523.34;5072380;28;20058;-39
2021/11/13 09:13:48;;;;;;;16.10;13.30;;;5.40;99.90;;;5.46;73.03;97517.41;5073370;28;20427;-43
2021/11/13 09:16:19;;;;;;;16.60;12.23;;;5.40;99.90;;;5.52;73.06;97514.25;5074401;28;20057;-39
2021/11/13 09:18:48;;;;;;;15.90;12.00;;;5.50;99.90;;;5.58;72.97;97518.16;5073077;28;20057;-39
2021/11/13 09:21:16;;;;;;;14.83;11.53;;;5.50;99.90;;;5.64;73.35;97513.19;5089609;28;20057;-40
2021/11/13 09:23:45;;;;;;;16.83;13.17;;;5.60;99.90;;;5.72;73.77;97505.44;5074396;28;20044;-40
2021/11/13 09:26:15;;;;;;;24.27;14.40;;;5.70;99.90;;;5.81;73.31;97505.59;5074547;28;20055;-40
2021/11/13 09:28:44;;;;;;;17.67;12.20;;;5.80;99.90;;;5.85;73.85;97504.34;5074852;28;20063;-40
2021/11/13 09:31:13;;;;;;;15.70;12.10;;;5.80;99.90;;;5.89;72.96;97513.69;5066272;28;20254;-44
2021/11/13 09:33:43;;;;;;;18.03;13.07;;;5.90;99.90;;;5.92;72.86;97519.53;5060054;28;20064;-44
2021/11/13 09:36:11;;;;;;;14.33;11.53;;;5.90;99.90;;;5.97;73.57;97524.47;5060108;28;20057;-39
2021/11/13 09:38:42;;;;;;;16.50;12.93;;;6.00;99.90;;;6.02;73.07;97524.03;5061526;28;20060;-40
2021/11/13 09:41:15;;;;;;;19.00;13.63;;;6.00;99.90;;;6.06;73.23;97522.78;5059626;28;20044;-39
2021/11/13 09:43:44;;;;;;;17.87;13.30;;;6.10;99.90;;;6.10;73.16;97517.09;5061135;28;20045;-39
2021/11/13 09:46:13;;;;;;;19.90;14.87;;;6.10;99.90;;;6.16;72.97;97518.34;5061264;28;20063;-39
2021/11/13 09:48:43;;;;;;;21.43;14.70;;;6.20;99.90;;;6.20;73.10;97513.63;5060234;28;20071;-40
2021/11/13 09:51:12;;;;;;;21.03;15.67;;;6.20;99.90;;;6.25;73.66;97516.72;5060391;28;20334;-40
2021/11/13 09:53:41;;;;;;;22.27;16.40;;;6.30;99.90;;;6.30;73.71;97517.13;5061064;28;20045;-40
2021/11/13 09:56:10;;;;;;;24.77;17.10;;;6.30;99.90;;;6.35;73.28;97524.66;5056465;28;20347;-40
2021/11/13 09:58:39;;;;;;;23.77;16.87;;;6.40;99.90;;;6.40;73.30;97535.66;5056958;28;20059;-39
2021/11/13 10:01:08;;;;;;;25.57;14.57;;;6.50;99.90;;;6.39;72.99;97532.16;5058126;28;20060;-39
2021/11/13 10:03:37;;;;;;;20.00;15.07;;;6.40;99.90;;;6.42;73.49;97526.63;5060998;28;20051;-39
2021/11/13 10:06:12;;;;;;;22.00;13.97;;;6.50;99.90;;;6.44;73.50;97542.34;5060880;28;20048;-39
2021/11/13 10:08:43;;;;;;;22.33;14.77;;;6.40;99.90;;;6.41;73.54;97530.22;5058786;28;20063;-39
2021/11/13 10:11:21;;;;;;;17.97;13.17;;;6.40;99.90;;;6.44;73.43;97526.47;5060328;28;20052;-40
2021/11/13 10:13:55;;;;;;;19.17;14.07;;;6.50;99.90;;;6.45;73.61;97521.03;5061019;28;20075;-40
2021/11/13 10:16:41;;;;;;;20.20;14.73;;;6.40;99.90;;;6.45;72.65;97520.19;5060733;28;20045;-39
2021/11/13 10:19:19;;;;;;;20.70;15.00;;;6.40;99.90;;;6.35;73.04;97528.13;5060468;28;20380;-40
2021/11/13 10:21:53;;;;;;;18.57;14.40;;;6.30;99.90;;;6.27;73.19;97525.34;5059654;28;20341;-40
2021/11/13 10:24:27;;;;;;;19.00;13.93;;;6.20;99.90;;;6.22;73.03;97515.19;5059797;28;20049;-40
2021/11/13 10:27:00;;;;;;;19.60;14.73;;;6.10;99.90;;;6.16;72.77;97526.28;5059273;28;20051;-40
2021/11/13 10:29:37;;;;;;;21.20;16.08;;;6.00;99.90;;;6.18;72.78;97519.06;5058292;28;20041;-40
2021/11/13 10:32:19;;;;;;;22.70;16.67;;;6.00;99.90;;;6.22;73.49;97501.97;5059716;28;20351;-40
2021/11/13 10:34:52;;;;;;;22.57;15.20;;;6.10;99.90;;;6.23;73.73;97505.44;5059267;28;20064;-40